sensor_id;sensor_type;location;lat;lon;timestamp;P1;durP1;ratioP1;P2;durP2;ratioP2
21148;SDS011;10732;51.472;6.466;2023-07-09T00:00:44;8.93;;;4.95;;
21148;SDS011;10732;51.472;6.466;2023-07-09T00:03:11;8.38;;;5.32;;
21148;SDS011;10732;51.472;6.466;2023-07-09T00:05:36;9.75;;;5.38;;
21148;SDS011;10732;51.472;6.466;2023-07-09T00:08:02;8.15;;;5.63;;
21148;SDS011;10732;51.472;6.466;2023-07-09T00:10:27;10.07;;;6.13;;
21148;SDS011;10732;51.472;6.466;2023-07-09T00:12:53;9.80;;;5.60;;
21148;SDS011;10732;51.472;6.466;2023-07-09T00:15:19;9.13;;;5.55;;
21148;SDS011;10732;51.472;6.466;2023-07-09T00:17:44;9.25;;;6.13;;
21148;SDS011;10732;51.472;6.466;2023-07-09T00:20:11;6.47;;;5.05;;
21148;SDS011;10732;51.472;6.466;2023-07-09T00:22:43;9.65;;;5.70;;
21148;SDS011;10732;51.472;6.466;2023-07-09T00:25:17;10.93;;;5.40;;
21148;SDS011;10732;51.472;6.466;2023-07-09T00:27:46;7.60;;;5.57;;
21148;SDS011;10732;51.472;6.466;2023-07-09T00:30:18;9.50;;;5.28;;
21148;SDS011;10732;51.472;6.466;2023-07-09T00:32:46;6.53;;;4.93;;
21148;SDS011;10732;51.472;6.466;2023-07-09T00:35:17;6.53;;;5.63;;
21148;SDS011;10732;51.472;6.466;2023-07-09T00:37:43;7.15;;;5.22;;
21148;SDS011;10732;51.472;6.466;2023-07-09T00:40:20;6.57;;;5.13;;
21148;SDS011;10732;51.472;6.466;2023-07-09T00:42:52;9.75;;;5.15;;
21148;SDS011;10732;51.472;6.466;2023-07-09T00:45:23;10.40;;;5.85;;
21148;SDS011;10732;51.472;6.466;2023-07-09T00:52:55;9.00;;;5.40;;
21148;SDS011;10732;51.472;6.466;2023-07-09T00:55:25;7.45;;;5.35;;
21148;SDS011;10732;51.472;6.466;2023-07-09T00:57:56;6.90;;;5.70;;
21148;SDS011;10732;51.472;6.466;2023-07-09T01:00:32;9.82;;;6.68;;
21148;SDS011;10732;51.472;6.466;2023-07-09T01:03:11;10.23;;;5.70;;
21148;SDS011;10732;51.472;6.466;2023-07-09T01:05:51;7.05;;;5.50;;
21148;SDS011;10732;51.472;6.466;2023-07-09T01:08:17;9.07;;;5.50;;
21148;SDS011;10732;51.472;6.466;2023-07-09T01:10:44;7.43;;;5.63;;
21148;SDS011;10732;51.472;6.466;2023-07-09T01:13:09;9.48;;;5.93;;
21148;SDS011;10732;51.472;6.466;2023-07-09T01:15:35;7.28;;;5.18;;
21148;SDS011;10732;51.472;6.466;2023-07-09T01:18:02;7.18;;;5.65;;
21148;SDS011;10732;51.472;6.466;2023-07-09T01:20:29;7.88;;;5.72;;
21148;SDS011;10732;51.472;6.466;2023-07-09T01:22:55;8.57;;;5.85;;
21148;SDS011;10732;51.472;6.466;2023-07-09T01:25:22;7.93;;;6.07;;
21148;SDS011;10732;51.472;6.466;2023-07-09T01:27:49;8.15;;;6.00;;
21148;SDS011;10732;51.472;6.466;2023-07-09T01:32:43;7.13;;;5.00;;
21148;SDS011;10732;51.472;6.466;2023-07-09T01:35:11;8.00;;;5.68;;
21148;SDS011;10732;51.472;6.466;2023-07-09T01:37:40;8.68;;;5.85;;
21148;SDS011;10732;51.472;6.466;2023-07-09T01:40:08;10.40;;;6.18;;
21148;SDS011;10732;51.472;6.466;2023-07-09T01:42:36;8.35;;;5.88;;
21148;SDS011;10732;51.472;6.466;2023-07-09T01:45:04;8.80;;;6.47;;
21148;SDS011;10732;51.472;6.466;2023-07-09T01:47:30;7.38;;;5.75;;
21148;SDS011;10732;51.472;6.466;2023-07-09T01:49:56;7.53;;;5.90;;
21148;SDS011;10732;51.472;6.466;2023-07-09T01:52:22;8.15;;;6.03;;
21148;SDS011;10732;51.472;6.466;2023-07-09T01:54:50;9.45;;;6.20;;
21148;SDS011;10732;51.472;6.466;2023-07-09T01:57:17;8.48;;;6.10;;
21148;SDS011;10732;51.472;6.466;2023-07-09T01:59:50;9.38;;;6.20;;
21148;SDS011;10732;51.472;6.466;2023-07-09T02:02:17;9.77;;;6.15;;
21148;SDS011;10732;51.472;6.466;2023-07-09T02:04:44;8.23;;;6.30;;
21148;SDS011;10732;51.472;6.466;2023-07-09T02:07:11;10.25;;;6.38;;
21148;SDS011;10732;51.472;6.466;2023-07-09T02:09:36;8.75;;;5.35;;
21148;SDS011;10732;51.472;6.466;2023-07-09T02:12:02;8.10;;;5.85;;
21148;SDS011;10732;51.472;6.466;2023-07-09T02:14:28;10.63;;;7.07;;
21148;SDS011;10732;51.472;6.466;2023-07-09T02:16:53;8.35;;;6.00;;
21148;SDS011;10732;51.472;6.466;2023-07-09T02:19:19;8.85;;;6.10;;
21148;SDS011;10732;51.472;6.466;2023-07-09T02:21:44;9.90;;;6.13;;
21148;SDS011;10732;51.472;6.466;2023-07-09T02:24:10;12.82;;;5.88;;
21148;SDS011;10732;51.472;6.466;2023-07-09T02:26:35;8.95;;;6.55;;
21148;SDS011;10732;51.472;6.466;2023-07-09T02:29:01;9.10;;;6.32;;
21148;SDS011;10732;51.472;6.466;2023-07-09T02:31:26;8.35;;;6.15;;
21148;SDS011;10732;51.472;6.466;2023-07-09T02:33:54;8.60;;;6.47;;
21148;SDS011;10732;51.472;6.466;2023-07-09T02:36:24;10.05;;;6.82;;
21148;SDS011;10732;51.472;6.466;2023-07-09T02:38:50;8.63;;;6.60;;
21148;SDS011;10732;51.472;6.466;2023-07-09T02:41:15;10.55;;;6.68;;
21148;SDS011;10732;51.472;6.466;2023-07-09T02:43:41;10.35;;;6.55;;
21148;SDS011;10732;51.472;6.466;2023-07-09T02:46:07;7.93;;;6.07;;
21148;SDS011;10732;51.472;6.466;2023-07-09T02:48:32;9.80;;;6.43;;
21148;SDS011;10732;51.472;6.466;2023-07-09T02:50:58;11.23;;;6.28;;
21148;SDS011;10732;51.472;6.466;2023-07-09T02:53:23;10.40;;;6.68;;
21148;SDS011;10732;51.472;6.466;2023-07-09T02:55:49;9.80;;;6.40;;
21148;SDS011;10732;51.472;6.466;2023-07-09T02:58:14;10.52;;;6.97;;
21148;SDS011;10732;51.472;6.466;2023-07-09T03:00:40;8.73;;;6.65;;
21148;SDS011;10732;51.472;6.466;2023-07-09T03:03:05;9.85;;;6.63;;
21148;SDS011;10732;51.472;6.466;2023-07-09T03:05:31;11.77;;;7.10;;
21148;SDS011;10732;51.472;6.466;2023-07-09T03:07:58;11.43;;;6.82;;
21148;SDS011;10732;51.472;6.466;2023-07-09T03:10:23;13.52;;;7.22;;
21148;SDS011;10732;51.472;6.466;2023-07-09T03:12:48;9.35;;;6.82;;
21148;SDS011;10732;51.472;6.466;2023-07-09T03:15:14;9.50;;;6.95;;
21148;SDS011;10732;51.472;6.466;2023-07-09T03:17:40;9.65;;;7.18;;
21148;SDS011;10732;51.472;6.466;2023-07-09T03:20:05;13.48;;;7.18;;
21148;SDS011;10732;51.472;6.466;2023-07-09T03:22:32;10.70;;;7.38;;
21148;SDS011;10732;51.472;6.466;2023-07-09T03:24:58;9.48;;;7.28;;
21148;SDS011;10732;51.472;6.466;2023-07-09T03:27:24;14.48;;;7.30;;
21148;SDS011;10732;51.472;6.466;2023-07-09T03:29:49;9.40;;;6.97;;
21148;SDS011;10732;51.472;6.466;2023-07-09T03:32:15;9.52;;;6.65;;
21148;SDS011;10732;51.472;6.466;2023-07-09T03:34:40;11.43;;;7.63;;
21148;SDS011;10732;51.472;6.466;2023-07-09T03:37:06;11.95;;;7.25;;
21148;SDS011;10732;51.472;6.466;2023-07-09T03:39:31;11.07;;;7.30;;
21148;SDS011;10732;51.472;6.466;2023-07-09T03:41:57;10.23;;;7.90;;
21148;SDS011;10732;51.472;6.466;2023-07-09T03:44:22;10.13;;;7.72;;
21148;SDS011;10732;51.472;6.466;2023-07-09T03:46:48;9.60;;;7.43;;
21148;SDS011;10732;51.472;6.466;2023-07-09T03:49:13;11.98;;;7.85;;
21148;SDS011;10732;51.472;6.466;2023-07-09T03:51:39;9.07;;;7.10;;
21148;SDS011;10732;51.472;6.466;2023-07-09T03:54:06;13.32;;;7.55;;
21148;SDS011;10732;51.472;6.466;2023-07-09T03:56:32;11.13;;;7.22;;
21148;SDS011;10732;51.472;6.466;2023-07-09T03:58:58;9.85;;;7.50;;
21148;SDS011;10732;51.472;6.466;2023-07-09T04:01:23;10.70;;;7.30;;
21148;SDS011;10732;51.472;6.466;2023-07-09T04:03:49;11.52;;;7.35;;
21148;SDS011;10732;51.472;6.466;2023-07-09T04:06:15;12.45;;;7.88;;
21148;SDS011;10732;51.472;6.466;2023-07-09T04:08:40;12.55;;;8.75;;
21148;SDS011;10732;51.472;6.466;2023-07-09T04:11:06;13.90;;;8.50;;
21148;SDS011;10732;51.472;6.466;2023-07-09T04:13:31;14.20;;;8.75;;
21148;SDS011;10732;51.472;6.466;2023-07-09T04:15:57;11.35;;;8.60;;
21148;SDS011;10732;51.472;6.466;2023-07-09T04:18:23;13.48;;;8.50;;
21148;SDS011;10732;51.472;6.466;2023-07-09T04:20:50;13.68;;;8.38;;
21148;SDS011;10732;51.472;6.466;2023-07-09T04:23:16;11.30;;;8.07;;
21148;SDS011;10732;51.472;6.466;2023-07-09T04:25:42;10.50;;;7.70;;
21148;SDS011;10732;51.472;6.466;2023-07-09T04:28:08;11.35;;;7.35;;
21148;SDS011;10732;51.472;6.466;2023-07-09T04:30:33;12.40;;;8.82;;
21148;SDS011;10732;51.472;6.466;2023-07-09T04:32:59;13.65;;;7.97;;
21148;SDS011;10732;51.472;6.466;2023-07-09T04:35:24;12.23;;;8.57;;
21148;SDS011;10732;51.472;6.466;2023-07-09T04:37:50;10.52;;;7.93;;
21148;SDS011;10732;51.472;6.466;2023-07-09T04:40:17;12.30;;;7.88;;
21148;SDS011;10732;51.472;6.466;2023-07-09T04:42:44;14.02;;;8.35;;
21148;SDS011;10732;51.472;6.466;2023-07-09T04:45:10;12.23;;;8.43;;
21148;SDS011;10732;51.472;6.466;2023-07-09T04:47:37;11.25;;;8.45;;
21148;SDS011;10732;51.472;6.466;2023-07-09T04:50:06;10.95;;;7.75;;
21148;SDS011;10732;51.472;6.466;2023-07-09T04:52:33;11.15;;;8.05;;
21148;SDS011;10732;51.472;6.466;2023-07-09T04:54:59;10.68;;;8.27;;
21148;SDS011;10732;51.472;6.466;2023-07-09T04:57:26;12.50;;;7.78;;
21148;SDS011;10732;51.472;6.466;2023-07-09T04:59:52;12.98;;;7.93;;
21148;SDS011;10732;51.472;6.466;2023-07-09T05:02:18;11.57;;;7.45;;
21148;SDS011;10732;51.472;6.466;2023-07-09T05:04:43;9.73;;;6.82;;
21148;SDS011;10732;51.472;6.466;2023-07-09T05:07:09;9.02;;;7.07;;
21148;SDS011;10732;51.472;6.466;2023-07-09T05:09:35;11.60;;;7.22;;
21148;SDS011;10732;51.472;6.466;2023-07-09T05:12:01;9.60;;;7.40;;
21148;SDS011;10732;51.472;6.466;2023-07-09T05:14:27;9.27;;;7.05;;
21148;SDS011;10732;51.472;6.466;2023-07-09T05:16:53;13.15;;;7.60;;
21148;SDS011;10732;51.472;6.466;2023-07-09T05:19:19;12.30;;;7.18;;
21148;SDS011;10732;51.472;6.466;2023-07-09T05:21:44;10.95;;;7.13;;
21148;SDS011;10732;51.472;6.466;2023-07-09T05:24:10;10.98;;;6.85;;
21148;SDS011;10732;51.472;6.466;2023-07-09T05:26:36;10.98;;;6.95;;
21148;SDS011;10732;51.472;6.466;2023-07-09T05:29:02;12.38;;;6.70;;
21148;SDS011;10732;51.472;6.466;2023-07-09T05:31:29;8.80;;;6.85;;
21148;SDS011;10732;51.472;6.466;2023-07-09T05:33:55;9.25;;;6.60;;
21148;SDS011;10732;51.472;6.466;2023-07-09T05:36:20;11.02;;;6.60;;
21148;SDS011;10732;51.472;6.466;2023-07-09T05:38:46;13.25;;;7.43;;
21148;SDS011;10732;51.472;6.466;2023-07-09T05:41:12;10.77;;;6.20;;
21148;SDS011;10732;51.472;6.466;2023-07-09T05:43:38;9.48;;;6.68;;
21148;SDS011;10732;51.472;6.466;2023-07-09T05:46:04;10.60;;;6.63;;
21148;SDS011;10732;51.472;6.466;2023-07-09T05:48:30;10.93;;;7.10;;
21148;SDS011;10732;51.472;6.466;2023-07-09T05:50:56;15.18;;;7.22;;
21148;SDS011;10732;51.472;6.466;2023-07-09T05:53:22;12.02;;;6.63;;
21148;SDS011;10732;51.472;6.466;2023-07-09T05:55:48;11.80;;;7.18;;
21148;SDS011;10732;51.472;6.466;2023-07-09T05:58:14;13.07;;;7.18;;
21148;SDS011;10732;51.472;6.466;2023-07-09T06:00:39;10.13;;;6.88;;
21148;SDS011;10732;51.472;6.466;2023-07-09T06:03:06;12.85;;;6.95;;
21148;SDS011;10732;51.472;6.466;2023-07-09T06:05:33;10.65;;;6.82;;
21148;SDS011;10732;51.472;6.466;2023-07-09T06:07:59;9.38;;;6.72;;
21148;SDS011;10732;51.472;6.466;2023-07-09T06:10:24;11.05;;;6.93;;
21148;SDS011;10732;51.472;6.466;2023-07-09T06:12:50;10.13;;;6.72;;
21148;SDS011;10732;51.472;6.466;2023-07-09T06:15:16;10.32;;;6.97;;
21148;SDS011;10732;51.472;6.466;2023-07-09T06:17:41;13.90;;;6.13;;
21148;SDS011;10732;51.472;6.466;2023-07-09T06:20:07;9.65;;;5.75;;
21148;SDS011;10732;51.472;6.466;2023-07-09T06:22:33;9.93;;;6.18;;
21148;SDS011;10732;51.472;6.466;2023-07-09T06:24:59;9.35;;;6.25;;
21148;SDS011;10732;51.472;6.466;2023-07-09T06:27:25;9.20;;;6.05;;
21148;SDS011;10732;51.472;6.466;2023-07-09T06:29:50;11.10;;;5.97;;
21148;SDS011;10732;51.472;6.466;2023-07-09T06:32:16;8.98;;;6.53;;
21148;SDS011;10732;51.472;6.466;2023-07-09T06:34:42;11.77;;;6.40;;
21148;SDS011;10732;51.472;6.466;2023-07-09T06:37:08;8.80;;;6.03;;
21148;SDS011;10732;51.472;6.466;2023-07-09T06:39:33;6.97;;;5.90;;
21148;SDS011;10732;51.472;6.466;2023-07-09T06:41:59;14.07;;;5.95;;
21148;SDS011;10732;51.472;6.466;2023-07-09T06:44:24;8.05;;;5.47;;
21148;SDS011;10732;51.472;6.466;2023-07-09T06:46:50;11.07;;;6.15;;
21148;SDS011;10732;51.472;6.466;2023-07-09T06:49:16;10.07;;;5.90;;
21148;SDS011;10732;51.472;6.466;2023-07-09T06:51:42;8.68;;;5.82;;
21148;SDS011;10732;51.472;6.466;2023-07-09T06:54:07;7.78;;;5.70;;
21148;SDS011;10732;51.472;6.466;2023-07-09T06:56:33;8.90;;;5.38;;
21148;SDS011;10732;51.472;6.466;2023-07-09T06:58:59;9.73;;;5.45;;
21148;SDS011;10732;51.472;6.466;2023-07-09T07:01:25;9.13;;;5.38;;
21148;SDS011;10732;51.472;6.466;2023-07-09T07:03:50;9.38;;;6.07;;
21148;SDS011;10732;51.472;6.466;2023-07-09T07:06:16;8.20;;;5.43;;
21148;SDS011;10732;51.472;6.466;2023-07-09T07:08:41;8.18;;;5.53;;
21148;SDS011;10732;51.472;6.466;2023-07-09T07:11:07;8.68;;;5.63;;
21148;SDS011;10732;51.472;6.466;2023-07-09T07:13:36;9.45;;;5.32;;
21148;SDS011;10732;51.472;6.466;2023-07-09T07:16:04;7.47;;;5.50;;
21148;SDS011;10732;51.472;6.466;2023-07-09T07:18:31;7.47;;;5.00;;
21148;SDS011;10732;51.472;6.466;2023-07-09T07:20:56;8.15;;;5.15;;
21148;SDS011;10732;51.472;6.466;2023-07-09T07:23:22;9.07;;;5.15;;
21148;SDS011;10732;51.472;6.466;2023-07-09T07:25:49;8.95;;;5.45;;
21148;SDS011;10732;51.472;6.466;2023-07-09T07:28:15;8.18;;;5.22;;
21148;SDS011;10732;51.472;6.466;2023-07-09T07:30:41;8.15;;;4.70;;
21148;SDS011;10732;51.472;6.466;2023-07-09T07:33:07;7.68;;;5.40;;
21148;SDS011;10732;51.472;6.466;2023-07-09T07:35:33;8.40;;;5.10;;
21148;SDS011;10732;51.472;6.466;2023-07-09T07:37:59;7.90;;;5.25;;
21148;SDS011;10732;51.472;6.466;2023-07-09T07:40:24;7.32;;;5.25;;
21148;SDS011;10732;51.472;6.466;2023-07-09T07:42:50;9.75;;;5.13;;
21148;SDS011;10732;51.472;6.466;2023-07-09T07:45:16;10.38;;;5.22;;
21148;SDS011;10732;51.472;6.466;2023-07-09T07:47:41;7.50;;;4.97;;
21148;SDS011;10732;51.472;6.466;2023-07-09T07:50:07;9.23;;;5.43;;
21148;SDS011;10732;51.472;6.466;2023-07-09T07:52:33;8.70;;;5.45;;
21148;SDS011;10732;51.472;6.466;2023-07-09T07:55:02;7.70;;;4.65;;
21148;SDS011;10732;51.472;6.466;2023-07-09T07:57:34;6.18;;;5.30;;
21148;SDS011;10732;51.472;6.466;2023-07-09T08:00:00;8.25;;;5.05;;
21148;SDS011;10732;51.472;6.466;2023-07-09T08:02:25;7.68;;;4.97;;
21148;SDS011;10732;51.472;6.466;2023-07-09T08:04:51;5.97;;;4.95;;
21148;SDS011;10732;51.472;6.466;2023-07-09T08:07:17;7.07;;;4.80;;
21148;SDS011;10732;51.472;6.466;2023-07-09T08:09:44;7.20;;;5.03;;
21148;SDS011;10732;51.472;6.466;2023-07-09T08:12:11;8.77;;;5.05;;
21148;SDS011;10732;51.472;6.466;2023-07-09T08:14:38;7.18;;;4.93;;
21148;SDS011;10732;51.472;6.466;2023-07-09T08:17:05;6.38;;;4.68;;
21148;SDS011;10732;51.472;6.466;2023-07-09T08:19:31;6.10;;;4.60;;
21148;SDS011;10732;51.472;6.466;2023-07-09T08:21:58;8.73;;;5.07;;
21148;SDS011;10732;51.472;6.466;2023-07-09T08:24:23;5.75;;;4.35;;
21148;SDS011;10732;51.472;6.466;2023-07-09T08:26:49;7.28;;;4.63;;
21148;SDS011;10732;51.472;6.466;2023-07-09T08:29:15;10.10;;;5.15;;
21148;SDS011;10732;51.472;6.466;2023-07-09T08:31:41;8.15;;;4.57;;
21148;SDS011;10732;51.472;6.466;2023-07-09T08:34:07;7.82;;;4.85;;
21148;SDS011;10732;51.472;6.466;2023-07-09T08:36:33;8.63;;;4.95;;
21148;SDS011;10732;51.472;6.466;2023-07-09T08:39:00;8.00;;;5.35;;
21148;SDS011;10732;51.472;6.466;2023-07-09T08:44:26;7.95;;;4.60;;
21148;SDS011;10732;51.472;6.466;2023-07-09T08:49:57;7.00;;;4.53;;
21148;SDS011;10732;51.472;6.466;2023-07-09T08:52:35;7.95;;;4.70;;
21148;SDS011;10732;51.472;6.466;2023-07-09T08:55:11;6.93;;;4.30;;
21148;SDS011;10732;51.472;6.466;2023-07-09T08:57:43;8.63;;;5.38;;
21148;SDS011;10732;51.472;6.466;2023-07-09T09:00:17;6.45;;;4.43;;
21148;SDS011;10732;51.472;6.466;2023-07-09T09:02:50;10.52;;;4.93;;
21148;SDS011;10732;51.472;6.466;2023-07-09T09:05:21;7.40;;;4.72;;
21148;SDS011;10732;51.472;6.466;2023-07-09T09:07:51;5.57;;;4.38;;
21148;SDS011;10732;51.472;6.466;2023-07-09T09:10:43;8.30;;;4.75;;
21148;SDS011;10732;51.472;6.466;2023-07-09T09:13:13;8.63;;;4.60;;
21148;SDS011;10732;51.472;6.466;2023-07-09T09:15:42;8.57;;;4.97;;
21148;SDS011;10732;51.472;6.466;2023-07-09T09:18:21;7.20;;;4.18;;
21148;SDS011;10732;51.472;6.466;2023-07-09T09:20:57;10.55;;;4.57;;
21148;SDS011;10732;51.472;6.466;2023-07-09T09:23:37;8.07;;;4.60;;
21148;SDS011;10732;51.472;6.466;2023-07-09T09:26:32;6.97;;;4.32;;
21148;SDS011;10732;51.472;6.466;2023-07-09T09:29:00;8.55;;;4.90;;
21148;SDS011;10732;51.472;6.466;2023-07-09T09:31:32;9.55;;;4.10;;
21148;SDS011;10732;51.472;6.466;2023-07-09T09:33:58;8.18;;;4.47;;
21148;SDS011;10732;51.472;6.466;2023-07-09T09:36:25;5.85;;;4.25;;
21148;SDS011;10732;51.472;6.466;2023-07-09T09:38:51;8.05;;;3.90;;
21148;SDS011;10732;51.472;6.466;2023-07-09T09:41:21;6.32;;;4.32;;
21148;SDS011;10732;51.472;6.466;2023-07-09T09:43:51;6.75;;;4.65;;
21148;SDS011;10732;51.472;6.466;2023-07-09T09:46:19;8.80;;;4.75;;
21148;SDS011;10732;51.472;6.466;2023-07-09T09:48:47;11.40;;;4.60;;
21148;SDS011;10732;51.472;6.466;2023-07-09T09:51:15;7.25;;;4.10;;
21148;SDS011;10732;51.472;6.466;2023-07-09T09:53:44;6.40;;;4.15;;
21148;SDS011;10732;51.472;6.466;2023-07-09T09:56:17;7.70;;;4.07;;
21148;SDS011;10732;51.472;6.466;2023-07-09T09:58:45;5.95;;;4.10;;
21148;SDS011;10732;51.472;6.466;2023-07-09T10:01:13;7.43;;;4.00;;
21148;SDS011;10732;51.472;6.466;2023-07-09T10:03:41;7.68;;;4.05;;
21148;SDS011;10732;51.472;6.466;2023-07-09T10:06:19;4.82;;;3.80;;
21148;SDS011;10732;51.472;6.466;2023-07-09T10:09:15;6.03;;;3.72;;
21148;SDS011;10732;51.472;6.466;2023-07-09T10:14:59;8.18;;;4.35;;
21148;SDS011;10732;51.472;6.466;2023-07-09T10:17:37;6.47;;;3.90;;
21148;SDS011;10732;51.472;6.466;2023-07-09T10:20:23;5.85;;;4.05;;
21148;SDS011;10732;51.472;6.466;2023-07-09T10:26:04;6.13;;;3.70;;
21148;SDS011;10732;51.472;6.466;2023-07-09T10:39:47;5.63;;;3.80;;
21148;SDS011;10732;51.472;6.466;2023-07-09T10:43:01;6.55;;;3.50;;
21148;SDS011;10732;51.472;6.466;2023-07-09T10:45:10;11.02;;;3.88;;
21148;SDS011;10732;51.472;6.466;2023-07-09T10:47:45;8.18;;;3.90;;
21148;SDS011;10732;51.472;6.466;2023-07-09T10:50:15;5.75;;;4.13;;
21148;SDS011;10732;51.472;6.466;2023-07-09T10:52:47;6.07;;;3.67;;
21148;SDS011;10732;51.472;6.466;2023-07-09T10:55:17;7.25;;;3.95;;
21148;SDS011;10732;51.472;6.466;2023-07-09T10:58:19;5.22;;;3.88;;
21148;SDS011;10732;51.472;6.466;2023-07-09T11:00:52;7.30;;;4.78;;
21148;SDS011;10732;51.472;6.466;2023-07-09T11:03:19;7.88;;;4.30;;
21148;SDS011;10732;51.472;6.466;2023-07-09T11:05:49;9.10;;;4.15;;
21148;SDS011;10732;51.472;6.466;2023-07-09T11:08:24;6.90;;;4.22;;
21148;SDS011;10732;51.472;6.466;2023-07-09T11:10:56;6.28;;;4.03;;
21148;SDS011;10732;51.472;6.466;2023-07-09T11:13:50;6.72;;;3.88;;
21148;SDS011;10732;51.472;6.466;2023-07-09T11:16:25;6.75;;;4.07;;
21148;SDS011;10732;51.472;6.466;2023-07-09T11:19:00;8.90;;;4.22;;
21148;SDS011;10732;51.472;6.466;2023-07-09T11:21:28;6.90;;;4.03;;
21148;SDS011;10732;51.472;6.466;2023-07-09T11:23:54;6.00;;;4.40;;
21148;SDS011;10732;51.472;6.466;2023-07-09T11:28:52;6.40;;;4.05;;
21148;SDS011;10732;51.472;6.466;2023-07-09T11:31:39;4.13;;;3.70;;
21148;SDS011;10732;51.472;6.466;2023-07-09T11:36:46;5.50;;;3.70;;
21148;SDS011;10732;51.472;6.466;2023-07-09T11:39:19;5.63;;;3.83;;
21148;SDS011;10732;51.472;6.466;2023-07-09T11:41:46;6.35;;;3.85;;
21148;SDS011;10732;51.472;6.466;2023-07-09T11:44:26;5.00;;;3.72;;
21148;SDS011;10732;51.472;6.466;2023-07-09T11:52:28;7.80;;;4.07;;
21148;SDS011;10732;51.472;6.466;2023-07-09T11:55:20;5.80;;;3.70;;
21148;SDS011;10732;51.472;6.466;2023-07-09T11:57:57;7.85;;;3.88;;
21148;SDS011;10732;51.472;6.466;2023-07-09T12:00:26;6.20;;;3.85;;
21148;SDS011;10732;51.472;6.466;2023-07-09T12:02:54;6.70;;;3.60;;
21148;SDS011;10732;51.472;6.466;2023-07-09T12:05:21;6.43;;;3.90;;
21148;SDS011;10732;51.472;6.466;2023-07-09T12:07:51;5.63;;;3.92;;
21148;SDS011;10732;51.472;6.466;2023-07-09T12:10:24;8.05;;;3.80;;
21148;SDS011;10732;51.472;6.466;2023-07-09T12:12:55;6.43;;;3.88;;
21148;SDS011;10732;51.472;6.466;2023-07-09T12:15:23;7.07;;;3.90;;
21148;SDS011;10732;51.472;6.466;2023-07-09T12:18:00;7.97;;;4.00;;
21148;SDS011;10732;51.472;6.466;2023-07-09T12:20:29;9.15;;;4.15;;
21148;SDS011;10732;51.472;6.466;2023-07-09T12:22:58;9.52;;;4.28;;
21148;SDS011;10732;51.472;6.466;2023-07-09T12:25:26;8.45;;;3.67;;
21148;SDS011;10732;51.472;6.466;2023-07-09T12:27:53;5.57;;;3.88;;
21148;SDS011;10732;51.472;6.466;2023-07-09T12:30:19;5.10;;;3.88;;
21148;SDS011;10732;51.472;6.466;2023-07-09T12:32:50;5.47;;;4.03;;
21148;SDS011;10732;51.472;6.466;2023-07-09T12:35:19;5.03;;;4.00;;
21148;SDS011;10732;51.472;6.466;2023-07-09T12:37:46;10.73;;;4.10;;
21148;SDS011;10732;51.472;6.466;2023-07-09T12:40:22;6.65;;;3.78;;
21148;SDS011;10732;51.472;6.466;2023-07-09T12:42:53;5.85;;;3.95;;
21148;SDS011;10732;51.472;6.466;2023-07-09T12:45:21;6.85;;;4.15;;
21148;SDS011;10732;51.472;6.466;2023-07-09T12:47:47;10.30;;;4.13;;
21148;SDS011;10732;51.472;6.466;2023-07-09T12:50:18;8.68;;;4.10;;
21148;SDS011;10732;51.472;6.466;2023-07-09T12:52:54;6.05;;;4.18;;
21148;SDS011;10732;51.472;6.466;2023-07-09T12:55:22;4.63;;;3.95;;
21148;SDS011;10732;51.472;6.466;2023-07-09T12:57:50;8.90;;;4.40;;
21148;SDS011;10732;51.472;6.466;2023-07-09T13:00:17;5.90;;;4.20;;
21148;SDS011;10732;51.472;6.466;2023-07-09T13:02:44;7.20;;;3.72;;
21148;SDS011;10732;51.472;6.466;2023-07-09T13:05:17;19.08;;;5.13;;
21148;SDS011;10732;51.472;6.466;2023-07-09T13:08:00;8.10;;;3.95;;
21148;SDS011;10732;51.472;6.466;2023-07-09T13:10:28;7.80;;;4.03;;
21148;SDS011;10732;51.472;6.466;2023-07-09T13:13:03;8.40;;;4.10;;
21148;SDS011;10732;51.472;6.466;2023-07-09T13:15:30;10.55;;;4.13;;
21148;SDS011;10732;51.472;6.466;2023-07-09T13:18:03;9.50;;;4.65;;
21148;SDS011;10732;51.472;6.466;2023-07-09T13:20:30;9.32;;;4.25;;
21148;SDS011;10732;51.472;6.466;2023-07-09T13:23:10;11.93;;;4.63;;
21148;SDS011;10732;51.472;6.466;2023-07-09T13:25:37;6.97;;;4.00;;
21148;SDS011;10732;51.472;6.466;2023-07-09T13:30:46;5.65;;;3.90;;
21148;SDS011;10732;51.472;6.466;2023-07-09T13:33:20;8.50;;;4.13;;
21148;SDS011;10732;51.472;6.466;2023-07-09T13:35:46;8.90;;;4.07;;
21148;SDS011;10732;51.472;6.466;2023-07-09T13:38:16;7.85;;;3.80;;
21148;SDS011;10732;51.472;6.466;2023-07-09T13:40:44;6.25;;;3.90;;
21148;SDS011;10732;51.472;6.466;2023-07-09T13:43:19;9.48;;;4.35;;
21148;SDS011;10732;51.472;6.466;2023-07-09T13:45:54;9.20;;;4.35;;
21148;SDS011;10732;51.472;6.466;2023-07-09T13:48:22;9.45;;;4.00;;
21148;SDS011;10732;51.472;6.466;2023-07-09T13:50:49;8.93;;;4.40;;
21148;SDS011;10732;51.472;6.466;2023-07-09T13:53:18;6.85;;;4.22;;
21148;SDS011;10732;51.472;6.466;2023-07-09T13:55:45;7.22;;;4.60;;
21148;SDS011;10732;51.472;6.466;2023-07-09T13:58:12;5.63;;;4.75;;
21148;SDS011;10732;51.472;6.466;2023-07-09T14:00:40;9.20;;;4.28;;
21148;SDS011;10732;51.472;6.466;2023-07-09T14:03:10;9.38;;;4.30;;
21148;SDS011;10732;51.472;6.466;2023-07-09T14:05:43;7.60;;;4.18;;
21148;SDS011;10732;51.472;6.466;2023-07-09T14:08:10;8.23;;;4.15;;
21148;SDS011;10732;51.472;6.466;2023-07-09T14:10:36;6.93;;;4.10;;
21148;SDS011;10732;51.472;6.466;2023-07-09T14:13:02;7.75;;;4.43;;
21148;SDS011;10732;51.472;6.466;2023-07-09T14:15:28;9.65;;;4.90;;
21148;SDS011;10732;51.472;6.466;2023-07-09T14:17:54;6.03;;;4.20;;
21148;SDS011;10732;51.472;6.466;2023-07-09T14:20:20;8.07;;;4.60;;
21148;SDS011;10732;51.472;6.466;2023-07-09T14:22:47;8.10;;;4.80;;
21148;SDS011;10732;51.472;6.466;2023-07-09T14:25:15;7.75;;;4.70;;
21148;SDS011;10732;51.472;6.466;2023-07-09T14:27:48;13.55;;;4.75;;
21148;SDS011;10732;51.472;6.466;2023-07-09T14:30:16;17.85;;;5.35;;
21148;SDS011;10732;51.472;6.466;2023-07-09T14:32:43;13.50;;;5.40;;
21148;SDS011;10732;51.472;6.466;2023-07-09T14:37:44;11.05;;;4.53;;
21148;SDS011;10732;51.472;6.466;2023-07-09T14:40:11;6.78;;;3.67;;
21148;SDS011;10732;51.472;6.466;2023-07-09T14:42:37;7.28;;;3.38;;
21148;SDS011;10732;51.472;6.466;2023-07-09T14:45:25;4.57;;;3.15;;
21148;SDS011;10732;51.472;6.466;2023-07-09T14:47:51;4.80;;;2.70;;
21148;SDS011;10732;51.472;6.466;2023-07-09T14:50:18;5.82;;;2.75;;
21148;SDS011;10732;51.472;6.466;2023-07-09T14:52:45;3.13;;;2.33;;
21148;SDS011;10732;51.472;6.466;2023-07-09T14:55:15;6.85;;;2.83;;
21148;SDS011;10732;51.472;6.466;2023-07-09T14:57:43;5.05;;;3.00;;
21148;SDS011;10732;51.472;6.466;2023-07-09T15:00:13;6.53;;;4.47;;
21148;SDS011;10732;51.472;6.466;2023-07-09T15:02:41;6.10;;;3.72;;
21148;SDS011;10732;51.472;6.466;2023-07-09T15:05:18;7.63;;;4.07;;
21148;SDS011;10732;51.472;6.466;2023-07-09T15:07:49;6.05;;;4.82;;
21148;SDS011;10732;51.472;6.466;2023-07-09T15:10:16;8.02;;;5.60;;
21148;SDS011;10732;51.472;6.466;2023-07-09T15:12:46;10.52;;;5.75;;
21148;SDS011;10732;51.472;6.466;2023-07-09T15:15:20;12.35;;;7.22;;
21148;SDS011;10732;51.472;6.466;2023-07-09T15:17:50;15.13;;;10.25;;
21148;SDS011;10732;51.472;6.466;2023-07-09T15:20:17;14.30;;;10.07;;
21148;SDS011;10732;51.472;6.466;2023-07-09T15:22:54;17.42;;;11.48;;
21148;SDS011;10732;51.472;6.466;2023-07-09T15:25:23;18.13;;;12.45;;
21148;SDS011;10732;51.472;6.466;2023-07-09T15:27:50;18.83;;;15.10;;
21148;SDS011;10732;51.472;6.466;2023-07-09T15:30:18;18.70;;;15.25;;
21148;SDS011;10732;51.472;6.466;2023-07-09T15:32:46;20.33;;;17.13;;
21148;SDS011;10732;51.472;6.466;2023-07-09T15:35:13;20.83;;;16.27;;
21148;SDS011;10732;51.472;6.466;2023-07-09T15:37:40;20.20;;;16.63;;